Hunter, Texas
Current Conditions -  °F | °C
As of 7:51 AM on Monday 20 Oct 2014 (Local Time) from KBAZ Reporting Station
Haze Haze  
Wind Chill: 64°   Ceiling: 7000
Heat Index: 64°   Visibility: 3mi
Dew Point: 64°   Wind: 6mph
Humidity: 100%   Direction: 30°NNE
Pressure: 30.03"   Gusts: NA
Location:  29.7667°N, 98.1818°W
Report Text: KBAZ 201251Z 03005KT 3SM BR BKN070 18/18 A3003 RMK AO2 SLP163 T01780178
Loading
Personal Weather Stations






























Interactive Weather Map
Tropical Storm Tracking
New forecast layout! Learn more

10-Day Weather Forecast

Advertisements
Track Severe Weather on mobile